Time;durP1;ratioP1;P1;durP2;ratioP2;P2;SDS_P1;SDS_P2;PMS_P1;PMS_P2;Temp;Humidity;BMP_temperature;BMP_pressure;BME280_temperature;BME280_humidity;BME280_pressure;Samples;Min_cycle;Max_cycle;Signal;HPM_P1;HPM_P2
2020/12/26 00:00:19;;;;;;;12.27;9.10;;;2.10;99.90;;;;;;5087203;28;20558;-81
2020/12/26 00:02:46;;;;;;;13.07;9.35;;;2.20;99.90;;;;;;5081179;28;20187;-82
2020/12/26 00:05:12;;;;;;;11.43;9.77;;;2.20;99.90;;;;;;5083129;28;20218;-82
2020/12/26 00:07:39;;;;;;;16.67;9.88;;;2.00;99.90;;;;;;5092982;28;20224;-82
2020/12/26 00:10:06;;;;;;;12.63;7.78;;;2.00;99.90;;;;;;5084134;28;20697;-82
2020/12/26 00:12:34;;;;;;;14.60;9.68;;;1.90;99.90;;;;;;5072449;28;20231;-82
2020/12/26 00:15:00;;;;;;;13.88;10.45;;;1.70;99.90;;;;;;5072947;28;20274;-82
2020/12/26 00:17:27;;;;;;;13.75;9.80;;;1.80;99.90;;;;;;5071717;28;20253;-82
2020/12/26 00:19:53;;;;;;;12.10;8.93;;;1.90;99.90;;;;;;5081957;28;20226;-82
2020/12/26 00:22:19;;;;;;;11.77;8.77;;;2.00;99.90;;;;;;5086080;28;20222;-82
2020/12/26 00:24:46;;;;;;;11.68;8.75;;;1.90;99.90;;;;;;5082309;28;20255;-82
2020/12/26 00:27:12;;;;;;;15.10;10.00;;;1.70;99.90;;;;;;5086542;28;20191;-82
2020/12/26 00:29:39;;;;;;;12.73;9.23;;;1.50;99.90;;;;;;5075643;28;20314;-82
2020/12/26 00:32:06;;;;;;;12.35;9.80;;;1.60;99.90;;;;;;5092995;28;20199;-81
2020/12/26 00:34:32;;;;;;;18.13;10.50;;;1.70;99.90;;;;;;5090825;28;20230;-82
2020/12/26 00:36:58;;;;;;;16.35;12.35;;;1.60;99.90;;;;;;5092536;28;20229;-82
2020/12/26 00:39:25;;;;;;;13.80;10.52;;;1.60;99.90;;;;;;5084474;28;20231;-82
2020/12/26 00:41:51;;;;;;;10.45;8.60;;;1.70;99.90;;;;;;5071966;28;20203;-82
2020/12/26 00:44:18;;;;;;;15.43;9.63;;;1.80;99.90;;;;;;5078061;28;20195;-82
2020/12/26 00:46:45;;;;;;;13.70;9.38;;;1.60;99.90;;;;;;5091725;28;20190;-81
2020/12/26 00:49:11;;;;;;;12.90;9.07;;;1.40;99.90;;;;;;5087437;28;20195;-82
2020/12/26 00:51:38;;;;;;;11.05;9.10;;;1.20;99.90;;;;;;5088285;28;20233;-82
2020/12/26 00:54:04;;;;;;;14.70;9.15;;;1.30;99.90;;;;;;5089530;28;20247;-82
2020/12/26 00:56:35;;;;;;;13.32;8.75;;;1.40;99.90;;;;;;5071153;28;20237;-82
2020/12/26 00:59:02;;;;;;;12.82;9.93;;;1.50;99.90;;;;;;5071341;28;20238;-82
2020/12/26 01:01:28;;;;;;;9.38;8.32;;;1.60;99.90;;;;;;5071953;28;20271;-81
2020/12/26 01:03:57;;;;;;;15.20;9.25;;;1.60;99.90;;;;;;5073747;28;20192;-82
2020/12/26 01:06:24;;;;;;;13.93;9.32;;;1.60;99.90;;;;;;5091858;28;20276;-81
2020/12/26 01:08:51;;;;;;;15.90;10.77;;;1.60;99.90;;;;;;5089913;28;20194;-81
2020/12/26 01:11:18;;;;;;;13.30;10.30;;;1.30;99.90;;;;;;5090963;28;20218;-82
2020/12/26 01:13:44;;;;;;;16.10;9.73;;;1.10;99.90;;;;;;5091495;28;20690;-82
2020/12/26 01:16:11;;;;;;;12.60;9.38;;;1.20;99.90;;;;;;5076059;28;20196;-81
2020/12/26 01:18:38;;;;;;;11.05;9.38;;;1.20;99.90;;;;;;5070915;28;20653;-81
2020/12/26 01:21:05;;;;;;;11.73;8.75;;;1.40;99.90;;;;;;5088932;28;20194;-81
2020/12/26 01:23:32;;;;;;;18.30;11.02;;;1.40;99.90;;;;;;5091088;28;20244;-81
2020/12/26 01:25:58;;;;;;;13.45;9.57;;;1.40;99.90;;;;;;5090204;28;20226;-81
2020/12/26 01:28:24;;;;;;;12.05;8.75;;;1.40;99.90;;;;;;5090494;28;20202;-81
2020/12/26 01:30:51;;;;;;;16.73;10.63;;;1.50;99.90;;;;;;5089582;28;20267;-81
2020/12/26 01:33:17;;;;;;;13.25;10.25;;;1.50;99.90;;;;;;5091922;28;20202;-82
2020/12/26 01:35:44;;;;;;;12.98;9.93;;;1.30;99.90;;;;;;5089697;28;20225;-81
2020/12/26 01:38:11;;;;;;;17.02;10.63;;;1.40;99.90;;;;;;5090360;28;20199;-82
2020/12/26 01:40:38;;;;;;;17.70;10.23;;;1.30;99.90;;;;;;5088871;28;20202;-81
2020/12/26 01:43:05;;;;;;;18.27;10.10;;;1.00;99.90;;;;;;5091571;28;20202;-81
2020/12/26 01:45:31;;;;;;;13.95;10.32;;;1.10;99.90;;;;;;5089384;28;20195;-82
2020/12/26 01:47:58;;;;;;;15.52;10.30;;;1.00;99.90;;;;;;5072427;28;20203;-81
2020/12/26 01:50:24;;;;;;;12.95;9.23;;;0.90;99.90;;;;;;5071783;28;20215;-82
2020/12/26 01:52:53;;;;;;;11.35;8.57;;;0.80;99.90;;;;;;5070600;28;20195;-82
2020/12/26 01:55:21;;;;;;;14.23;10.23;;;0.70;99.90;;;;;;5072041;28;20200;-81
2020/12/26 01:57:51;;;;;;;13.80;10.20;;;0.60;99.90;;;;;;5069841;28;20241;-81
2020/12/26 02:00:19;;;;;;;15.40;10.00;;;0.60;99.90;;;;;;5070955;28;20317;-81
2020/12/26 02:02:49;;;;;;;12.65;9.10;;;0.60;99.90;;;;;;5070867;28;20199;-81
2020/12/26 02:05:18;;;;;;;13.63;9.90;;;0.70;99.90;;;;;;5082756;28;20203;-82
2020/12/26 02:07:48;;;;;;;13.35;9.63;;;0.90;99.90;;;;;;5090139;28;20244;-81
2020/12/26 02:10:19;;;;;;;17.00;11.07;;;1.00;99.90;;;;;;5086847;28;20230;-81
2020/12/26 02:12:48;;;;;;;18.05;11.30;;;1.00;99.90;;;;;;5090713;28;20805;-82
2020/12/26 02:15:15;;;;;;;14.60;9.43;;;0.90;99.90;;;;;;5088853;28;20197;-81
2020/12/26 02:17:42;;;;;;;15.52;10.15;;;0.90;99.90;;;;;;5089774;28;20230;-81
2020/12/26 02:20:10;;;;;;;27.45;11.15;;;0.70;99.90;;;;;;5089074;28;20222;-82
2020/12/26 02:22:37;;;;;;;14.30;9.73;;;0.70;99.90;;;;;;5085396;28;20240;-81
2020/12/26 02:25:06;;;;;;;16.63;10.63;;;0.80;99.90;;;;;;5115054;27;20667;-81
2020/12/26 02:27:33;;;;;;;19.98;11.73;;;0.90;99.90;;;;;;5083403;28;20223;-81
2020/12/26 02:30:00;;;;;;;18.20;11.65;;;0.90;99.90;;;;;;5073327;28;20793;-82
2020/12/26 02:32:28;;;;;;;16.67;9.90;;;0.90;99.90;;;;;;5084790;28;20201;-81
2020/12/26 02:34:56;;;;;;;17.65;10.70;;;0.80;99.90;;;;;;5074891;28;20203;-81
2020/12/26 02:37:23;;;;;;;13.63;9.02;;;1.00;99.90;;;;;;5083649;28;20221;-81
2020/12/26 02:39:52;;;;;;;19.42;11.73;;;1.30;99.90;;;;;;5083725;28;20222;-82
2020/12/26 02:42:21;;;;;;;15.75;10.25;;;1.30;99.90;;;;;;5089495;28;20499;-81
2020/12/26 02:44:48;;;;;;;20.60;11.88;;;1.30;99.90;;;;;;5079461;28;20237;-81
2020/12/26 02:47:14;;;;;;;17.13;11.43;;;1.30;99.90;;;;;;5089346;28;20237;-81
2020/12/26 02:49:41;;;;;;;18.65;11.63;;;1.30;99.90;;;;;;5086048;28;20237;-82
2020/12/26 02:52:07;;;;;;;14.82;11.00;;;1.20;99.90;;;;;;5070176;28;20200;-80
2020/12/26 02:54:33;;;;;;;16.73;10.68;;;1.10;99.90;;;;;;5080455;28;20544;-81
2020/12/26 02:57:00;;;;;;;17.00;10.38;;;0.90;99.90;;;;;;5082027;28;20199;-81
2020/12/26 02:59:27;;;;;;;19.48;10.70;;;0.80;99.90;;;;;;5071560;28;20204;-81
2020/12/26 03:01:53;;;;;;;15.60;9.50;;;0.50;99.90;;;;;;5069847;28;20566;-81
2020/12/26 03:04:20;;;;;;;17.67;11.65;;;0.40;99.90;;;;;;5085026;28;20451;-81
2020/12/26 03:06:46;;;;;;;15.80;11.10;;;0.30;99.90;;;;;;5069925;28;20202;-80
2020/12/26 03:09:13;;;;;;;21.40;12.05;;;0.20;99.90;;;;;;5085362;28;20195;-81
2020/12/26 03:11:39;;;;;;;15.25;11.40;;;0.50;99.90;;;;;;5083313;28;20227;-81
2020/12/26 03:14:05;;;;;;;15.07;10.57;;;0.70;99.90;;;;;;5077825;28;20677;-81
2020/12/26 03:16:33;;;;;;;14.50;10.75;;;0.90;99.90;;;;;;5071847;28;20617;-81
2020/12/26 03:18:59;;;;;;;15.98;11.13;;;1.00;99.90;;;;;;5089448;28;20209;-82
2020/12/26 03:21:25;;;;;;;17.80;10.30;;;1.30;99.90;;;;;;5089801;28;20260;-81
2020/12/26 03:23:52;;;;;;;15.32;10.27;;;1.30;99.90;;;;;;5089753;28;20248;-81
2020/12/26 03:26:18;;;;;;;13.63;10.55;;;1.40;99.90;;;;;;5071113;28;20692;-81
2020/12/26 03:28:45;;;;;;;13.68;9.15;;;1.10;99.90;;;;;;5085344;28;20288;-81
2020/12/26 03:31:12;;;;;;;16.35;10.88;;;1.10;99.90;;;;;;5071984;28;20591;-81
2020/12/26 03:33:39;;;;;;;13.25;9.07;;;1.00;99.90;;;;;;5083722;28;20218;-81
2020/12/26 03:36:06;;;;;;;14.70;9.43;;;1.00;99.90;;;;;;5069732;28;20184;-81
2020/12/26 03:38:32;;;;;;;11.75;9.30;;;1.00;99.90;;;;;;5082681;28;20195;-82
2020/12/26 03:41:00;;;;;;;14.05;9.50;;;1.00;99.90;;;;;;5071338;28;20660;-80
2020/12/26 03:43:26;;;;;;;14.57;8.90;;;1.00;99.90;;;;;;5080123;28;20522;-81
2020/12/26 03:45:53;;;;;;;18.58;9.73;;;0.80;99.90;;;;;;5073528;28;20191;-81
2020/12/26 03:48:19;;;;;;;12.90;9.10;;;0.70;99.90;;;;;;5075739;28;20541;-81
2020/12/26 03:50:46;;;;;;;15.90;8.70;;;0.60;99.90;;;;;;5084756;28;20268;-81
2020/12/26 03:53:13;;;;;;;16.73;9.40;;;0.60;99.90;;;;;;5093573;28;20587;-81
2020/12/26 03:55:40;;;;;;;14.85;10.38;;;0.80;99.90;;;;;;5086777;28;20265;-81
2020/12/26 03:58:07;;;;;;;12.35;9.27;;;0.90;99.90;;;;;;5092260;28;20246;-81
2020/12/26 04:00:33;;;;;;;14.68;10.48;;;1.00;99.90;;;;;;5088221;28;20563;-81
2020/12/26 04:02:59;;;;;;;11.10;9.00;;;1.00;99.90;;;;;;5082554;28;20222;-81
2020/12/26 04:05:26;;;;;;;12.65;9.70;;;1.10;99.90;;;;;;5090116;28;20194;-82
2020/12/26 04:07:54;;;;;;;18.15;10.43;;;1.00;99.90;;;;;;5078733;28;20215;-81
2020/12/26 04:10:20;;;;;;;16.70;10.07;;;1.20;99.90;;;;;;5087337;28;20250;-81
2020/12/26 04:12:47;;;;;;;14.45;9.65;;;1.20;99.90;;;;;;5080745;28;20652;-82
2020/12/26 04:15:13;;;;;;;14.32;10.18;;;1.20;99.90;;;;;;5085628;28;20187;-81
2020/12/26 04:17:40;;;;;;;20.33;10.43;;;1.30;99.90;;;;;;5081670;28;20187;-81
2020/12/26 04:20:06;;;;;;;17.67;10.13;;;1.40;99.90;;;;;;5085479;28;20198;-81
2020/12/26 04:22:33;;;;;;;16.23;9.65;;;1.40;99.90;;;;;;5083451;28;20668;-81
2020/12/26 04:25:00;;;;;;;12.93;10.20;;;1.50;99.90;;;;;;5086167;28;20247;-81
2020/12/26 04:27:27;;;;;;;16.38;9.50;;;1.40;99.90;;;;;;5092281;28;20193;-81
2020/12/26 04:29:55;;;;;;;24.23;10.52;;;1.40;99.90;;;;;;5083895;28;20808;-81
2020/12/26 04:32:22;;;;;;;16.60;10.40;;;1.40;99.90;;;;;;5077402;28;20202;-81
2020/12/26 04:34:49;;;;;;;13.77;9.13;;;1.60;99.90;;;;;;5082817;28;20199;-81
2020/12/26 04:37:16;;;;;;;12.60;9.32;;;1.60;99.90;;;;;;5076303;28;20202;-81
2020/12/26 04:39:45;;;;;;;14.48;9.20;;;1.40;99.90;;;;;;5087596;28;20199;-81
2020/12/26 04:42:14;;;;;;;12.90;9.30;;;1.40;99.90;;;;;;5072539;28;20223;-81
2020/12/26 04:44:42;;;;;;;15.70;11.35;;;1.60;99.90;;;;;;5083285;28;20191;-81
2020/12/26 04:47:13;;;;;;;16.75;8.88;;;1.60;99.90;;;;;;5087909;28;20257;-81
2020/12/26 04:49:40;;;;;;;16.52;9.50;;;1.50;99.90;;;;;;5075438;28;20191;-81
2020/12/26 04:52:10;;;;;;;16.65;10.30;;;1.50;99.90;;;;;;5072112;28;20202;-81
2020/12/26 04:54:42;;;;;;;19.13;10.85;;;1.40;99.90;;;;;;5074939;28;20241;-81
2020/12/26 04:57:10;;;;;;;16.38;10.45;;;1.40;99.90;;;;;;5071522;28;20203;-81
2020/12/26 04:59:38;;;;;;;13.05;9.38;;;1.60;99.90;;;;;;5075889;28;20226;-81
2020/12/26 05:02:06;;;;;;;13.68;9.60;;;1.50;99.90;;;;;;5071120;28;20199;-81
2020/12/26 05:04:34;;;;;;;19.42;10.15;;;1.50;99.90;;;;;;5078722;28;20272;-81
2020/12/26 05:07:01;;;;;;;17.58;10.50;;;1.70;99.90;;;;;;5078511;28;20281;-81
2020/12/26 05:09:28;;;;;;;16.42;10.02;;;1.50;99.90;;;;;;5088168;28;20191;-81
2020/12/26 05:11:57;;;;;;;14.88;10.73;;;1.60;99.90;;;;;;5072053;28;20203;-81
2020/12/26 05:14:25;;;;;;;18.83;9.50;;;1.70;99.90;;;;;;5078388;28;20199;-81
2020/12/26 05:16:53;;;;;;;16.48;9.93;;;1.60;99.90;;;;;;5091032;28;20226;-81
2020/12/26 05:19:19;;;;;;;15.90;10.10;;;1.80;99.90;;;;;;5089133;28;20214;-82
2020/12/26 05:21:47;;;;;;;19.25;9.05;;;1.80;99.90;;;;;;5071774;28;20242;-82
2020/12/26 05:24:14;;;;;;;16.50;10.35;;;1.80;99.90;;;;;;5072650;28;20243;-81
2020/12/26 05:26:42;;;;;;;18.00;11.20;;;1.90;99.90;;;;;;5071531;28;20199;-81
2020/12/26 05:29:10;;;;;;;15.50;11.27;;;1.80;99.90;;;;;;5074070;28;20211;-82
2020/12/26 05:31:53;;;;;;;16.90;10.65;;;1.80;99.90;;;;;;5073399;28;20227;-82
2020/12/26 05:34:21;;;;;;;17.50;11.10;;;2.00;99.90;;;;;;5076585;28;20222;-81
2020/12/26 05:36:48;;;;;;;14.90;10.88;;;1.90;99.90;;;;;;5091494;28;20233;-81
2020/12/26 05:39:15;;;;;;;17.27;10.07;;;1.90;99.90;;;;;;5089348;28;20195;-81
2020/12/26 05:41:43;;;;;;;18.38;10.90;;;2.10;99.90;;;;;;5091301;28;20234;-81
2020/12/26 05:44:11;;;;;;;16.25;11.45;;;2.10;99.90;;;;;;5087023;28;20195;-81
2020/12/26 05:46:44;;;;;;;18.98;12.10;;;2.10;99.90;;;;;;5071078;28;20261;-81
2020/12/26 05:49:30;;;;;;;17.50;10.85;;;2.30;99.90;;;;;;5088087;28;20271;-81
2020/12/26 05:51:58;;;;;;;15.70;11.52;;;2.10;99.80;;;;;;5071066;28;20265;-81
2020/12/26 05:54:26;;;;;;;13.93;10.23;;;2.10;99.90;;;;;;5071321;28;20257;-81
2020/12/26 05:57:10;;;;;;;14.70;10.20;;;2.00;99.90;;;;;;5070205;28;20245;-81
2020/12/26 05:59:37;;;;;;;17.67;10.90;;;1.90;99.90;;;;;;5072040;28;20229;-81
2020/12/26 06:02:22;;;;;;;18.80;10.73;;;1.70;99.90;;;;;;5071014;28;20253;-81
2020/12/26 06:04:56;;;;;;;15.82;11.43;;;1.40;99.90;;;;;;5070056;28;20211;-81
2020/12/26 06:07:33;;;;;;;18.48;10.90;;;1.50;99.90;;;;;;5070495;28;20247;-81
2020/12/26 06:10:01;;;;;;;19.67;12.65;;;1.50;99.90;;;;;;5079465;28;20238;-81
2020/12/26 06:12:29;;;;;;;23.20;12.25;;;1.40;99.90;;;;;;5070736;28;20235;-81
2020/12/26 06:14:56;;;;;;;16.38;10.60;;;1.50;99.90;;;;;;5089681;28;20210;-81
2020/12/26 06:17:27;;;;;;;16.48;11.32;;;2.10;99.90;;;;;;5089464;28;20194;-81
2020/12/26 06:20:00;;;;;;;14.32;11.30;;;1.40;99.90;;;;;;5075723;28;20198;-80
2020/12/26 06:22:41;;;;;;;20.67;11.90;;;1.10;99.90;;;;;;5088122;28;20196;-81
2020/12/26 06:25:14;;;;;;;19.40;11.65;;;1.00;99.90;;;;;;5071252;28;20200;-81
2020/12/26 06:27:58;;;;;;;19.65;12.00;;;1.00;99.90;;;;;;5071034;28;20581;-81
2020/12/26 06:30:25;;;;;;;17.35;13.00;;;1.00;99.90;;;;;;5081699;28;20235;-81
2020/12/26 06:32:52;;;;;;;21.35;10.80;;;1.00;99.90;;;;;;5077049;28;20217;-81
2020/12/26 06:35:20;;;;;;;19.02;11.60;;;1.10;99.90;;;;;;5088515;28;20226;-81
2020/12/26 06:37:47;;;;;;;21.45;11.00;;;1.20;99.90;;;;;;5083639;28;20245;-81
2020/12/26 06:40:28;;;;;;;14.88;10.90;;;1.10;99.90;;;;;;5080916;28;20198;-81
2020/12/26 06:42:55;;;;;;;16.98;11.55;;;1.20;99.90;;;;;;5088493;28;20204;-81
2020/12/26 06:45:33;;;;;;;17.88;12.43;;;1.20;99.90;;;;;;5075715;28;20312;-82
2020/12/26 06:48:00;;;;;;;14.40;9.82;;;1.30;99.90;;;;;;5072213;28;20198;-82
2020/12/26 06:50:28;;;;;;;21.00;12.60;;;1.20;99.90;;;;;;5080344;28;20333;-81
2020/12/26 06:52:55;;;;;;;20.70;12.50;;;1.20;99.90;;;;;;5083096;28;20206;-82
2020/12/26 06:55:41;;;;;;;18.92;11.40;;;1.10;99.90;;;;;;5084670;28;20816;-82
2020/12/26 06:58:09;;;;;;;18.90;12.63;;;1.10;99.90;;;;;;5080802;28;20221;-81
2020/12/26 07:00:36;;;;;;;16.95;11.25;;;1.10;99.90;;;;;;5081893;28;20210;-82
2020/12/26 07:03:28;;;;;;;17.55;11.10;;;1.10;99.90;;;;;;5078176;28;20202;-82
2020/12/26 07:05:58;;;;;;;17.38;11.57;;;1.20;99.90;;;;;;5086289;28;20652;-82
2020/12/26 07:08:30;;;;;;;16.67;11.85;;;1.20;99.90;;;;;;5076003;28;20241;-82
2020/12/26 07:10:57;;;;;;;15.70;10.20;;;1.20;99.90;;;;;;5086680;28;20210;-82
2020/12/26 07:13:51;;;;;;;20.35;11.13;;;1.30;99.90;;;;;;5077002;28;20202;-81
2020/12/26 07:16:37;;;;;;;15.85;10.40;;;1.30;99.90;;;;;;5057094;28;20211;-82
2020/12/26 07:19:22;;;;;;;16.17;10.70;;;1.30;99.80;;;;;;5073612;28;20206;-82
2020/12/26 07:21:50;;;;;;;17.67;10.93;;;1.30;99.80;;;;;;5086581;28;20226;-81
2020/12/26 07:24:17;;;;;;;22.83;10.90;;;1.30;99.60;;;;;;5084214;28;20248;-82
2020/12/26 07:26:43;;;;;;;18.17;11.93;;;1.20;99.60;;;;;;5075449;28;20601;-82
2020/12/26 07:29:18;;;;;;;14.48;9.90;;;1.30;99.90;;;;;;5087952;28;20282;-82
2020/12/26 07:31:48;;;;;;;14.50;10.50;;;1.30;99.80;;;;;;5074147;28;20254;-82
2020/12/26 07:34:40;;;;;;;17.05;10.57;;;1.30;99.70;;;;;;5089253;28;20226;-81
2020/12/26 07:37:07;;;;;;;15.70;9.88;;;1.00;99.60;;;;;;5093316;28;20548;-81
2020/12/26 07:39:43;;;;;;;14.43;9.77;;;1.00;99.90;;;;;;5093206;28;20213;-82
2020/12/26 07:42:10;;;;;;;13.95;9.68;;;1.20;99.90;;;;;;5084915;28;20195;-81
2020/12/26 07:44:38;;;;;;;15.95;9.85;;;1.30;99.90;;;;;;5075264;28;20235;-81
2020/12/26 07:47:07;;;;;;;16.13;10.55;;;1.40;99.90;;;;;;5075706;28;20278;-81
2020/12/26 07:49:33;;;;;;;16.30;11.00;;;1.50;99.60;;;;;;5088191;28;20207;-81
2020/12/26 07:52:01;;;;;;;14.60;9.63;;;1.50;99.50;;;;;;5073378;28;20227;-82
2020/12/26 07:54:28;;;;;;;14.90;9.98;;;1.50;99.20;;;;;;5074462;28;20195;-82
2020/12/26 07:56:55;;;;;;;14.43;10.75;;;1.50;99.10;;;;;;5073224;28;20226;-82
2020/12/26 07:59:22;;;;;;;17.38;10.60;;;1.50;99.10;;;;;;5075266;28;20191;-82
2020/12/26 08:01:53;;;;;;;18.50;11.70;;;1.70;99.30;;;;;;5093490;28;20214;-82
2020/12/26 08:04:19;;;;;;;15.90;9.63;;;1.80;99.10;;;;;;5091997;28;20222;-82
2020/12/26 08:06:47;;;;;;;16.45;11.80;;;1.90;99.00;;;;;;5093352;28;20195;-84
2020/12/26 08:09:14;;;;;;;18.40;10.65;;;1.80;98.40;;;;;;5091384;28;20713;-83
2020/12/26 08:11:42;;;;;;;14.13;10.15;;;1.80;98.90;;;;;;5090614;28;20753;-83
2020/12/26 08:14:09;;;;;;;14.63;10.60;;;1.80;98.90;;;;;;5075072;28;20198;-83
2020/12/26 08:16:36;;;;;;;18.17;11.77;;;1.90;98.90;;;;;;5073731;28;20696;-83
2020/12/26 08:19:04;;;;;;;15.05;10.85;;;2.00;98.70;;;;;;5074525;28;20658;-84
2020/12/26 08:21:31;;;;;;;13.68;10.32;;;2.10;98.50;;;;;;5074616;28;20211;-84
2020/12/26 08:23:59;;;;;;;18.20;11.25;;;2.00;98.40;;;;;;5092705;28;20197;-83
2020/12/26 08:26:28;;;;;;;12.88;10.63;;;2.10;98.60;;;;;;5094924;28;20282;-84
2020/12/26 08:29:01;;;;;;;13.23;10.23;;;2.40;98.50;;;;;;5093064;28;20197;-83
2020/12/26 08:31:30;;;;;;;18.08;11.13;;;2.40;98.00;;;;;;5074226;28;20227;-84
2020/12/26 08:34:05;;;;;;;14.63;10.63;;;2.40;97.90;;;;;;5089441;28;20194;-84
2020/12/26 08:36:36;;;;;;;17.80;12.02;;;2.40;97.90;;;;;;5072164;28;20210;-84
2020/12/26 08:39:04;;;;;;;17.45;12.30;;;2.40;97.70;;;;;;5089794;28;20194;-84
2020/12/26 08:41:31;;;;;;;17.90;11.95;;;2.40;97.80;;;;;;5093319;28;20190;-84
2020/12/26 08:43:59;;;;;;;14.98;12.65;;;2.50;97.80;;;;;;5089412;28;20195;-84
2020/12/26 08:46:25;;;;;;;14.80;10.65;;;2.40;97.60;;;;;;5072936;28;20231;-84
2020/12/26 08:48:52;;;;;;;18.10;11.73;;;2.40;97.50;;;;;;5089670;28;20195;-83
2020/12/26 08:51:21;;;;;;;16.60;11.60;;;2.30;97.60;;;;;;5075849;28;20696;-83
2020/12/26 08:53:48;;;;;;;17.60;10.82;;;2.30;97.60;;;;;;5083961;28;20206;-82
2020/12/26 08:56:15;;;;;;;17.45;10.73;;;2.50;98.20;;;;;;5093133;28;20213;-84
2020/12/26 08:58:51;;;;;;;17.38;10.82;;;2.50;98.00;;;;;;5075079;28;20195;-84
2020/12/26 09:01:18;;;;;;;15.38;10.75;;;2.60;98.20;;;;;;5092650;28;20232;-84
2020/12/26 09:03:49;;;;;;;19.05;12.48;;;2.70;97.90;;;;;;5079565;28;20252;-84
2020/12/26 09:06:15;;;;;;;12.60;9.50;;;2.90;97.90;;;;;;5092776;28;20735;-84
2020/12/26 09:08:43;;;;;;;15.77;11.65;;;2.90;97.90;;;;;;5083947;28;20230;-84
2020/12/26 09:11:11;;;;;;;17.05;13.25;;;3.00;97.60;;;;;;5086641;28;20222;-84
2020/12/26 09:13:39;;;;;;;16.58;12.13;;;2.80;97.50;;;;;;5092556;28;20221;-84
2020/12/26 09:16:10;;;;;;;13.63;10.35;;;3.00;97.90;;;;;;5073849;28;20583;-85
2020/12/26 09:18:40;;;;;;;14.27;10.52;;;2.80;97.60;;;;;;5071796;28;20203;-84
2020/12/26 09:21:08;;;;;;;12.38;10.13;;;2.90;97.80;;;;;;5092331;28;20225;-84
2020/12/26 09:23:36;;;;;;;15.55;10.63;;;3.00;97.80;;;;;;5089393;28;20232;-84
2020/12/26 09:26:13;;;;;;;13.38;9.55;;;3.10;97.60;;;;;;5092916;28;20217;-84
2020/12/26 09:28:53;;;;;;;13.38;10.88;;;3.10;97.60;;;;;;5075213;28;20248;-85
2020/12/26 09:31:22;;;;;;;12.00;8.77;;;3.10;97.40;;;;;;5073236;28;20227;-85
2020/12/26 09:33:51;;;;;;;15.10;9.00;;;3.30;97.90;;;;;;5076202;28;20194;-86
2020/12/26 09:36:19;;;;;;;13.82;9.48;;;3.40;97.50;;;;;;5092792;28;20202;-86
2020/12/26 09:38:46;;;;;;;12.13;9.32;;;3.50;97.20;;;;;;5077282;28;20274;-84
2020/12/26 09:41:16;;;;;;;13.60;10.23;;;3.50;96.80;;;;;;5090160;28;20719;-85
2020/12/26 09:43:43;;;;;;;14.25;9.93;;;3.30;96.70;;;;;;5089816;28;20202;-84
2020/12/26 09:46:10;;;;;;;15.93;9.73;;;3.50;97.70;;;;;;5068365;28;20229;-85
2020/12/26 09:48:37;;;;;;;14.43;8.55;;;3.30;97.00;;;;;;5083339;28;20256;-84
2020/12/26 09:51:10;;;;;;;11.23;8.05;;;3.20;96.50;;;;;;5074282;28;20615;-84
2020/12/26 09:53:36;;;;;;;11.73;8.13;;;3.20;96.40;;;;;;5069354;28;20295;-84
2020/12/26 09:56:06;;;;;;;10.73;7.20;;;3.30;96.50;;;;;;5088684;28;20216;-84
2020/12/26 09:58:33;;;;;;;8.95;7.53;;;3.00;96.10;;;;;;5088224;28;20190;-84
2020/12/26 10:00:59;;;;;;;10.27;8.98;;;3.00;96.40;;;;;;5087188;28;20202;-84
2020/12/26 10:03:26;;;;;;;13.30;7.65;;;2.80;96.30;;;;;;5090510;28;20183;-85
2020/12/26 10:05:52;;;;;;;9.40;6.63;;;3.00;96.80;;;;;;5076575;28;20187;-85
2020/12/26 10:08:20;;;;;;;12.52;6.75;;;3.20;96.90;;;;;;5075611;28;20223;-85
2020/12/26 10:10:46;;;;;;;10.40;7.25;;;3.50;96.30;;;;;;5089495;28;20225;-85
2020/12/26 10:13:12;;;;;;;8.98;7.80;;;3.60;96.00;;;;;;5087937;28;20192;-85
2020/12/26 10:15:39;;;;;;;7.55;6.40;;;3.70;96.30;;;;;;5089076;28;20578;-85
2020/12/26 10:18:05;;;;;;;13.27;6.55;;;3.60;95.20;;;;;;5089027;28;20201;-86
2020/12/26 10:20:32;;;;;;;8.25;6.63;;;3.60;95.00;;;;;;5085006;28;20195;-85
2020/12/26 10:22:58;;;;;;;11.13;7.45;;;3.80;95.50;;;;;;5090872;28;20190;-85
2020/12/26 10:25:26;;;;;;;9.30;6.82;;;3.90;95.10;;;;;;5086697;28;20218;-85
2020/12/26 10:27:52;;;;;;;8.80;6.25;;;3.40;93.90;;;;;;5089120;28;20208;-85
2020/12/26 10:30:19;;;;;;;9.43;6.72;;;3.20;94.80;;;;;;5077454;28;20199;-85
2020/12/26 10:32:45;;;;;;;10.63;6.35;;;3.20;95.10;;;;;;5072586;28;20187;-85
2020/12/26 10:35:12;;;;;;;6.93;6.00;;;3.30;94.60;;;;;;5082793;28;20183;-85
2020/12/26 10:37:39;;;;;;;9.40;7.00;;;3.50;95.40;;;;;;5070282;28;20699;-85
2020/12/26 10:40:05;;;;;;;9.48;7.10;;;3.70;94.60;;;;;;5080726;28;20204;-85
2020/12/26 10:42:33;;;;;;;10.95;7.63;;;3.90;94.60;;;;;;5071225;28;20222;-85
2020/12/26 10:44:59;;;;;;;9.75;6.97;;;4.00;94.40;;;;;;5076317;28;20202;-85
2020/12/26 10:47:26;;;;;;;8.32;6.03;;;4.30;94.50;;;;;;5076785;28;20202;-85
2020/12/26 10:49:52;;;;;;;14.82;6.38;;;3.70;93.20;;;;;;5081444;28;20198;-85
2020/12/26 10:52:19;;;;;;;6.53;5.78;;;3.40;93.40;;;;;;5090856;28;20265;-85
2020/12/26 10:54:45;;;;;;;6.80;5.45;;;3.60;94.70;;;;;;5090353;28;20209;-85
2020/12/26 10:57:11;;;;;;;7.20;5.25;;;3.40;93.20;;;;;;5090273;28;20194;-85
2020/12/26 10:59:39;;;;;;;10.32;6.25;;;3.60;94.40;;;;;;5084626;28;20207;-85
2020/12/26 11:02:05;;;;;;;7.28;6.25;;;4.00;94.50;;;;;;5075799;28;20203;-85
2020/12/26 11:04:32;;;;;;;6.65;4.97;;;4.20;94.20;;;;;;5087543;28;20190;-85
2020/12/26 11:06:58;;;;;;;7.03;5.90;;;4.40;93.80;;;;;;5074212;28;20200;-84
2020/12/26 11:09:24;;;;;;;7.50;5.60;;;4.60;93.30;;;;;;5082914;28;20244;-85
2020/12/26 11:11:52;;;;;;;6.88;5.55;;;4.60;92.80;;;;;;5075312;28;20229;-85
2020/12/26 11:14:19;;;;;;;7.50;5.70;;;4.20;92.00;;;;;;5083579;28;20187;-84
2020/12/26 11:16:48;;;;;;;6.90;5.35;;;4.40;93.00;;;;;;5075156;28;20203;-85
2020/12/26 11:19:15;;;;;;;8.52;5.25;;;4.60;93.20;;;;;;5084058;28;20688;-84
2020/12/26 11:21:41;;;;;;;6.57;4.80;;;4.60;92.20;;;;;;5073489;28;20308;-85
2020/12/26 11:24:08;;;;;;;6.28;4.95;;;4.50;92.20;;;;;;5087376;28;20199;-85
2020/12/26 11:26:35;;;;;;;10.10;5.55;;;4.20;92.20;;;;;;5093568;28;20233;-85
2020/12/26 11:29:01;;;;;;;7.35;5.18;;;4.60;92.30;;;;;;5090840;28;20629;-85
2020/12/26 11:31:28;;;;;;;5.50;5.00;;;4.60;92.40;;;;;;5074983;28;20226;-84
2020/12/26 11:33:55;;;;;;;8.05;5.95;;;4.80;92.30;;;;;;5082782;28;20191;-85
2020/12/26 11:36:23;;;;;;;8.27;7.05;;;4.80;91.40;;;;;;5088774;28;20232;-86
2020/12/26 11:38:51;;;;;;;6.28;5.45;;;5.10;91.80;;;;;;5095954;28;20294;-84
2020/12/26 11:41:20;;;;;;;6.97;6.07;;;5.20;91.20;;;;;;5083691;28;20199;-86
2020/12/26 11:43:48;;;;;;;6.35;5.75;;;5.10;90.80;;;;;;5086706;28;20285;-86
2020/12/26 11:46:15;;;;;;;6.82;5.28;;;5.20;91.20;;;;;;5073602;28;20199;-87
2020/12/26 11:48:42;;;;;;;6.07;5.47;;;5.30;91.40;;;;;;5076916;28;20545;-87
2020/12/26 11:51:11;;;;;;;8.05;5.97;;;5.30;90.80;;;;;;5093637;28;20234;-86
2020/12/26 11:53:38;;;;;;;6.60;5.22;;;5.30;91.00;;;;;;5091139;28;20197;-87
2020/12/26 11:56:08;;;;;;;6.10;5.43;;;5.30;91.20;;;;;;5093111;28;20221;-87
2020/12/26 11:58:35;;;;;;;6.30;5.70;;;5.30;90.40;;;;;;5085584;28;20222;-86
2020/12/26 12:01:02;;;;;;;7.22;5.70;;;5.10;88.20;;;;;;5091739;28;20202;-87
2020/12/26 12:03:29;;;;;;;6.97;5.22;;;4.70;88.90;;;;;;5088683;28;20201;-87
2020/12/26 12:05:55;;;;;;;5.72;4.78;;;4.60;89.10;;;;;;5090708;28;20183;-86
2020/12/26 12:08:23;;;;;;;7.82;4.53;;;4.00;89.40;;;;;;5082078;28;20187;-87
2020/12/26 12:10:53;;;;;;;6.45;5.47;;;3.90;90.40;;;;;;5090307;28;20241;-87
2020/12/26 12:13:20;;;;;;;5.32;4.55;;;3.90;90.90;;;;;;5092709;28;20245;-87
2020/12/26 12:15:46;;;;;;;6.47;5.75;;;3.70;90.70;;;;;;5086915;28;20195;-86
2020/12/26 12:18:13;;;;;;;4.63;4.10;;;3.90;91.20;;;;;;5093358;28;20187;-87
2020/12/26 12:20:39;;;;;;;8.35;4.95;;;3.70;90.50;;;;;;5088104;28;20256;-86
2020/12/26 12:23:06;;;;;;;5.90;5.40;;;3.50;90.50;;;;;;5089096;28;20211;-85
2020/12/26 12:25:33;;;;;;;6.00;4.97;;;3.80;91.00;;;;;;5092225;28;20183;-86
2020/12/26 12:28:00;;;;;;;6.63;5.53;;;4.20;91.50;;;;;;5085400;28;20191;-87
2020/12/26 12:30:27;;;;;;;8.40;5.75;;;4.20;90.60;;;;;;5083341;28;20584;-87
2020/12/26 12:33:02;;;;;;;9.25;5.25;;;4.10;90.80;;;;;;5090627;28;20218;-87
2020/12/26 12:35:29;;;;;;;6.40;4.85;;;4.20;90.00;;;;;;5093462;28;20189;-85
2020/12/26 12:37:55;;;;;;;6.50;4.72;;;4.50;90.30;;;;;;5088441;28;20207;-87
2020/12/26 12:40:22;;;;;;;6.10;4.50;;;4.30;87.90;;;;;;5091081;28;20202;-86
2020/12/26 12:42:49;;;;;;;5.75;4.68;;;4.30;90.70;;;;;;5086439;28;20195;-86
2020/12/26 12:45:16;;;;;;;5.75;4.57;;;4.40;88.80;;;;;;5076768;28;20192;-85
2020/12/26 12:47:42;;;;;;;8.45;4.95;;;4.70;89.80;;;;;;5076801;28;20195;-86